Time;durP1;ratioP1;P1;durP2;ratioP2;P2;SDS_P1;SDS_P2;PMS_P1;PMS_P2;Temp;Humidity;BMP_temperature;BMP_pressure;BME280_temperature;BME280_humidity;BME280_pressure;Samples;Min_cycle;Max_cycle;Signal;HPM_P1;HPM_P2
2021/03/28 00:00:17;;;;;;;5.30;4.10;;;9.20;92.50;;;;;;5045585;28;20435;-59
2021/03/28 00:02:52;;;;;;;3.93;3.30;;;9.00;93.00;;;;;;5036710;28;20492;-59
2021/03/28 00:05:28;;;;;;;8.33;3.90;;;8.90;93.40;;;;;;5042093;28;20464;-60
2021/03/28 00:07:58;;;;;;;7.57;4.93;;;8.90;93.70;;;;;;5054322;28;20776;-59
2021/03/28 00:10:39;;;;;;;4.73;3.50;;;8.90;93.80;;;;;;5055955;28;20449;-60
2021/03/28 00:13:07;;;;;;;4.40;3.10;;;8.90;94.00;;;;;;5054295;28;20427;-59
2021/03/28 00:15:38;;;;;;;4.27;2.47;;;8.90;94.10;;;;;;5055859;28;20420;-59
2021/03/28 00:18:29;;;;;;;7.40;3.20;;;8.90;93.80;;;;;;5055693;28;20431;-60
2021/03/28 00:21:21;;;;;;;4.37;3.30;;;8.90;94.20;;;;;;5048994;28;20406;-60
2021/03/28 00:24:12;;;;;;;4.87;3.20;;;8.80;94.40;;;;;;5052461;28;20429;-60
2021/03/28 00:27:08;;;;;;;2.97;2.63;;;8.60;94.50;;;;;;5055387;28;20778;-59
2021/03/28 00:30:01;;;;;;;4.53;2.37;;;8.40;95.10;;;;;;5054941;28;20548;-60
2021/03/28 00:32:45;;;;;;;3.47;2.73;;;8.40;95.30;;;;;;5055330;28;20464;-60
2021/03/28 00:35:15;;;;;;;7.50;3.57;;;8.30;95.60;;;;;;5051187;28;20414;-61
2021/03/28 00:37:43;;;;;;;5.17;2.97;;;8.30;95.70;;;;;;5036148;28;20476;-59
2021/03/28 00:40:09;;;;;;;8.13;2.90;;;8.20;96.00;;;;;;5036124;28;20933;-60
2021/03/28 00:42:40;;;;;;;6.67;3.00;;;8.10;96.50;;;;;;5038954;28;20418;-60
2021/03/28 00:45:26;;;;;;;6.07;3.40;;;7.90;96.90;;;;;;5035618;28;20156;-60
2021/03/28 00:48:13;;;;;;;4.90;3.00;;;7.90;97.20;;;;;;5052716;28;20424;-60
2021/03/28 00:50:55;;;;;;;4.70;2.63;;;8.00;97.50;;;;;;5044678;28;20471;-61
2021/03/28 00:53:38;;;;;;;2.87;2.27;;;8.10;97.40;;;;;;5034904;28;20768;-59
2021/03/28 00:56:39;;;;;;;4.97;2.97;;;8.10;97.10;;;;;;5035148;28;20493;-60
2021/03/28 00:59:19;;;;;;;4.13;2.40;;;8.10;97.70;;;;;;5053356;28;20967;-60
2021/03/28 01:02:05;;;;;;;5.67;2.70;;;8.00;97.80;;;;;;5051417;28;20434;-61
2021/03/28 01:04:39;;;;;;;8.57;3.10;;;8.00;97.80;;;;;;5040047;28;20406;-59
2021/03/28 01:07:20;;;;;;;4.13;2.67;;;7.90;98.00;;;;;;5035004;28;20405;-59
2021/03/28 01:10:03;;;;;;;8.03;2.70;;;7.80;98.20;;;;;;5035044;28;20537;-60
2021/03/28 01:12:53;;;;;;;5.00;2.50;;;7.80;98.50;;;;;;5052122;28;20436;-60
2021/03/28 01:15:21;;;;;;;4.10;2.87;;;7.70;98.50;;;;;;5054380;28;20460;-60
2021/03/28 01:17:53;;;;;;;6.63;2.73;;;7.50;99.10;;;;;;5052778;28;20410;-60
2021/03/28 01:20:37;;;;;;;5.70;2.20;;;7.40;99.50;;;;;;5055432;28;20969;-60
2021/03/28 01:23:15;;;;;;;5.30;2.73;;;7.40;99.70;;;;;;5045853;28;20462;-60
2021/03/28 01:26:04;;;;;;;5.20;2.47;;;7.60;99.70;;;;;;5052700;28;20934;-61
2021/03/28 01:28:45;;;;;;;3.33;2.33;;;7.60;99.40;;;;;;5054469;28;20453;-61
2021/03/28 01:31:35;;;;;;;6.77;2.60;;;7.60;99.40;;;;;;5042465;28;20499;-61
2021/03/28 01:34:04;;;;;;;4.10;2.17;;;7.50;99.80;;;;;;5054105;28;20769;-60
2021/03/28 01:36:38;;;;;;;4.67;2.30;;;7.40;99.90;;;;;;5045459;28;20406;-60
2021/03/28 01:39:17;;;;;;;5.90;3.17;;;7.40;99.90;;;;;;5034535;28;20425;-61
2021/03/28 01:41:49;;;;;;;3.20;2.50;;;7.30;99.90;;;;;;5047798;28;20408;-61
2021/03/28 01:44:42;;;;;;;7.77;2.30;;;7.30;99.90;;;;;;5053026;28;20416;-60
2021/03/28 01:47:19;;;;;;;4.70;2.70;;;7.30;99.90;;;;;;5049550;28;20438;-62
2021/03/28 01:50:15;;;;;;;10.10;2.90;;;7.30;99.90;;;;;;5049001;28;20555;-61
2021/03/28 01:53:05;;;;;;;6.57;2.37;;;7.30;99.90;;;;;;5038790;28;20941;-61
2021/03/28 01:56:12;;;;;;;7.43;2.20;;;7.30;99.90;;;;;;5041779;28;20418;-61
2021/03/28 01:59:09;;;;;;;6.77;2.20;;;7.30;99.90;;;;;;5040031;28;20441;-60
2021/03/28 02:01:56;;;;;;;4.07;2.87;;;7.30;99.90;;;;;;5046881;28;20425;-59
2021/03/28 02:04:51;;;;;;;4.30;2.17;;;7.30;99.90;;;;;;5049382;28;20830;-60
2021/03/28 02:07:38;;;;;;;5.03;2.37;;;7.30;99.90;;;;;;5050935;28;20930;-59
2021/03/28 02:10:13;;;;;;;7.17;3.00;;;7.30;99.90;;;;;;5038364;28;21036;-60
2021/03/28 02:13:01;;;;;;;4.77;2.10;;;7.40;99.90;;;;;;5030071;28;20428;-61
2021/03/28 02:15:37;;;;;;;5.10;2.50;;;7.50;99.90;;;;;;5043755;28;20422;-60
2021/03/28 02:18:37;;;;;;;4.50;2.53;;;7.50;99.90;;;;;;5027716;28;20433;-61
2021/03/28 02:21:32;;;;;;;7.87;2.27;;;7.50;99.90;;;;;;5048657;28;20408;-61
2021/03/28 02:24:35;;;;;;;5.03;2.40;;;7.50;99.90;;;;;;5052322;28;20409;-59
2021/03/28 02:27:35;;;;;;;4.17;2.33;;;7.50;99.90;;;;;;5052032;28;20479;-60
2021/03/28 02:30:11;;;;;;;6.20;2.60;;;7.60;99.90;;;;;;5061892;22;20484;-61
2021/03/28 02:33:14;;;;;;;6.63;2.53;;;7.60;99.90;;;;;;5036439;28;20418;-61
2021/03/28 02:35:49;;;;;;;7.63;2.20;;;7.60;99.90;;;;;;5042443;28;20471;-61
2021/03/28 02:38:43;;;;;;;5.17;2.10;;;7.50;99.90;;;;;;5051983;28;20400;-61
2021/03/28 02:41:34;;;;;;;5.10;2.60;;;7.50;99.90;;;;;;5030339;28;21198;-61
2021/03/28 02:44:31;;;;;;;4.27;1.70;;;7.60;99.90;;;;;;5033906;28;20761;-61
2021/03/28 02:46:57;;;;;;;4.73;1.90;;;7.60;99.90;;;;;;5015415;28;20425;-61
2021/03/28 02:49:40;;;;;;;5.20;2.50;;;7.60;99.90;;;;;;5043877;28;20849;-61
2021/03/28 02:52:13;;;;;;;3.53;2.30;;;7.40;99.90;;;;;;5020901;28;20230;-61
2021/03/28 02:54:51;;;;;;;3.97;2.23;;;7.40;99.90;;;;;;5033151;28;20468;-61
2021/03/28 02:57:54;;;;;;;5.60;2.27;;;7.30;99.90;;;;;;5034153;28;20496;-60
2021/03/28 03:00:45;;;;;;;3.93;2.17;;;7.40;99.90;;;;;;5045406;28;20498;-60
2021/03/28 03:03:39;;;;;;;3.60;2.10;;;7.40;99.90;;;;;;5046910;28;20441;-61
2021/03/28 03:06:18;;;;;;;5.80;2.33;;;7.20;99.90;;;;;;5034574;28;20920;-60
2021/03/28 03:08:59;;;;;;;4.43;2.47;;;7.30;99.90;;;;;;5050771;28;20968;-60
2021/03/28 03:11:45;;;;;;;8.57;2.33;;;7.40;99.90;;;;;;5045983;28;20401;-61
2021/03/28 03:14:41;;;;;;;6.40;2.33;;;7.40;99.90;;;;;;5031044;28;20448;-60
2021/03/28 03:17:37;;;;;;;3.50;2.10;;;7.40;99.90;;;;;;5032868;28;20402;-60
2021/03/28 03:20:08;;;;;;;6.70;2.63;;;7.20;99.90;;;;;;5044267;28;20532;-60
2021/03/28 03:23:12;;;;;;;4.80;2.50;;;7.10;99.90;;;;;;5035374;28;20417;-60
2021/03/28 03:25:59;;;;;;;2.70;1.90;;;7.10;99.90;;;;;;5015939;28;20421;-60
2021/03/28 03:28:27;;;;;;;5.30;2.70;;;7.00;99.90;;;;;;5048539;28;20958;-60
2021/03/28 03:31:05;;;;;;;3.80;2.03;;;7.00;99.90;;;;;;5051186;28;21077;-60
2021/03/28 03:34:12;;;;;;;6.90;2.10;;;7.00;99.90;;;;;;5038133;28;20443;-61
2021/03/28 03:36:50;;;;;;;3.73;1.90;;;6.90;99.90;;;;;;5054479;28;20421;-60
2021/03/28 03:39:31;;;;;;;6.20;2.27;;;6.80;99.90;;;;;;5040438;28;20438;-60
2021/03/28 03:42:02;;;;;;;5.90;2.27;;;6.80;99.90;;;;;;5033287;28;20405;-58
2021/03/28 03:44:58;;;;;;;3.60;1.90;;;6.90;99.90;;;;;;5036916;28;20426;-61
2021/03/28 03:47:31;;;;;;;7.20;2.60;;;6.90;99.90;;;;;;5033979;28;20930;-60
2021/03/28 03:50:09;;;;;;;4.67;2.00;;;7.00;99.90;;;;;;5037308;28;20477;-60
2021/03/28 03:52:46;;;;;;;3.53;1.80;;;6.90;99.90;;;;;;5036427;28;20421;-60
2021/03/28 03:55:20;;;;;;;4.80;2.37;;;6.80;99.90;;;;;;5039817;28;20404;-60
2021/03/28 03:57:54;;;;;;;4.33;1.90;;;6.80;99.90;;;;;;5042530;28;20418;-59
2021/03/28 04:00:31;;;;;;;4.80;1.90;;;6.70;99.90;;;;;;5036789;28;20456;-59
2021/03/28 04:03:20;;;;;;;3.80;1.97;;;6.70;99.90;;;;;;5037491;28;20416;-59
2021/03/28 04:05:57;;;;;;;4.00;1.70;;;6.70;99.90;;;;;;5044032;28;20925;-61
2021/03/28 04:08:29;;;;;;;4.00;2.40;;;6.60;99.90;;;;;;5055077;28;20413;-61
2021/03/28 04:11:24;;;;;;;4.70;1.70;;;6.60;99.90;;;;;;5054385;28;20787;-61
2021/03/28 04:14:02;;;;;;;5.23;2.40;;;6.50;99.90;;;;;;5054364;28;20814;-61
2021/03/28 04:17:11;;;;;;;3.60;1.80;;;6.50;99.90;;;;;;5042841;28;20440;-63
2021/03/28 04:20:08;;;;;;;3.20;1.80;;;6.60;99.90;;;;;;4992021;28;20440;-62
2021/03/28 04:23:00;;;;;;;3.90;2.13;;;6.60;99.90;;;;;;5053024;28;20432;-61
2021/03/28 04:25:45;;;;;;;6.60;2.73;;;6.60;99.90;;;;;;5049206;28;20483;-61
2021/03/28 04:28:31;;;;;;;3.17;1.70;;;6.70;99.90;;;;;;5036840;28;20974;-61
2021/03/28 04:30:57;;;;;;;8.67;2.70;;;6.60;99.90;;;;;;5033200;28;20465;-61
2021/03/28 04:33:37;;;;;;;4.60;2.30;;;6.50;99.90;;;;;;5049376;28;20452;-61
2021/03/28 04:36:28;;;;;;;4.20;2.20;;;6.70;99.90;;;;;;5045059;28;20238;-60
2021/03/28 04:39:21;;;;;;;3.43;2.27;;;6.80;99.90;;;;;;5035270;28;20434;-61
2021/03/28 04:41:55;;;;;;;3.60;2.87;;;6.70;99.90;;;;;;5044512;28;20811;-61
2021/03/28 04:44:57;;;;;;;5.33;2.37;;;6.60;99.90;;;;;;5041890;28;20768;-61
2021/03/28 04:47:50;;;;;;;5.43;2.40;;;6.70;99.90;;;;;;5033165;28;20424;-61
2021/03/28 04:50:41;;;;;;;7.00;2.20;;;6.70;99.90;;;;;;5052454;28;20453;-61
2021/03/28 04:53:44;;;;;;;4.10;2.00;;;6.50;99.90;;;;;;5053741;28;20963;-60
2021/03/28 04:56:38;;;;;;;4.60;2.40;;;6.50;99.90;;;;;;5051087;28;20409;-60
2021/03/28 04:59:09;;;;;;;5.67;2.20;;;6.60;99.90;;;;;;5047291;28;20438;-60
2021/03/28 05:01:53;;;;;;;5.10;2.30;;;6.60;99.90;;;;;;5017140;28;20822;-61
2021/03/28 05:04:35;;;;;;;3.90;2.57;;;6.60;99.90;;;;;;5036998;28;20410;-61
2021/03/28 05:07:18;;;;;;;6.80;2.20;;;6.50;99.90;;;;;;5034922;28;20411;-60
2021/03/28 05:10:14;;;;;;;4.50;2.50;;;6.40;99.90;;;;;;5035883;28;20456;-61
2021/03/28 05:13:24;;;;;;;7.03;2.40;;;6.30;99.90;;;;;;5034704;28;20402;-61
2021/03/28 05:16:12;;;;;;;4.00;1.77;;;6.40;99.90;;;;;;4996597;28;20480;-61
2021/03/28 05:19:08;;;;;;;3.00;2.27;;;6.40;99.90;;;;;;5034550;28;20465;-61
2021/03/28 05:22:05;;;;;;;3.30;2.00;;;6.50;99.90;;;;;;5034305;28;20425;-61
2021/03/28 05:24:54;;;;;;;8.10;2.40;;;6.60;99.90;;;;;;5043932;28;20515;-61
2021/03/28 05:27:49;;;;;;;4.60;2.17;;;6.70;99.90;;;;;;5040670;28;20409;-62
2021/03/28 05:30:17;;;;;;;4.93;2.17;;;6.70;99.90;;;;;;5045256;28;20496;-61
2021/03/28 05:32:56;;;;;;;4.20;2.30;;;6.40;99.90;;;;;;5053027;28;20415;-61
2021/03/28 05:36:05;;;;;;;5.10;2.30;;;6.20;99.90;;;;;;5042663;28;20405;-61
2021/03/28 05:38:44;;;;;;;5.53;2.63;;;6.20;99.90;;;;;;4972743;28;20425;-62
2021/03/28 05:41:33;;;;;;;9.17;2.90;;;6.30;99.90;;;;;;4972686;28;20416;-61
2021/03/28 05:44:36;;;;;;;8.03;3.00;;;6.40;99.90;;;;;;5017757;28;20422;-61
2021/03/28 05:47:01;;;;;;;5.77;2.07;;;6.50;99.90;;;;;;5034793;28;20409;-61
2021/03/28 05:50:04;;;;;;;9.67;2.60;;;6.60;99.90;;;;;;5038659;28;20526;-61
2021/03/28 05:52:48;;;;;;;4.53;2.37;;;6.80;99.90;;;;;;5050620;28;20209;-60
2021/03/28 05:55:47;;;;;;;4.43;2.33;;;6.90;99.90;;;;;;5052159;28;20396;-61
2021/03/28 05:58:18;;;;;;;4.30;2.53;;;7.00;99.90;;;;;;5043179;28;21002;-63
2021/03/28 06:01:12;;;;;;;4.60;2.47;;;7.00;99.90;;;;;;5047902;28;20418;-61
2021/03/28 06:04:15;;;;;;;5.27;2.70;;;7.10;99.90;;;;;;5035084;28;20405;-61
2021/03/28 06:06:58;;;;;;;5.33;2.33;;;7.20;99.90;;;;;;5014447;28;20409;-61
2021/03/28 06:10:02;;;;;;;3.67;2.50;;;7.10;99.90;;;;;;5024105;28;20460;-61
2021/03/28 06:12:46;;;;;;;3.80;2.50;;;7.10;99.90;;;;;;5034311;28;20405;-62
2021/03/28 06:15:36;;;;;;;3.60;2.53;;;7.20;99.90;;;;;;5036540;28;20761;-61
2021/03/28 06:18:41;;;;;;;7.40;2.40;;;7.00;99.90;;;;;;5050309;28;20964;-61
2021/03/28 06:21:37;;;;;;;3.60;2.13;;;6.90;99.90;;;;;;5035102;28;20397;-61
2021/03/28 06:24:22;;;;;;;3.63;2.20;;;6.80;99.90;;;;;;5050587;28;20415;-61
2021/03/28 06:27:28;;;;;;;6.10;2.63;;;6.90;99.90;;;;;;5043266;28;20957;-61
2021/03/28 06:30:27;;;;;;;4.73;2.07;;;7.00;99.90;;;;;;4978853;28;20464;-61
2021/03/28 06:33:34;;;;;;;5.33;2.50;;;7.20;99.90;;;;;;5041477;28;20394;-61
2021/03/28 06:36:02;;;;;;;7.70;3.23;;;7.30;99.90;;;;;;5049531;28;20466;-60
2021/03/28 06:39:15;;;;;;;3.60;2.10;;;7.40;99.90;;;;;;5043412;28;20471;-59
2021/03/28 06:42:07;;;;;;;3.37;2.10;;;7.70;99.90;;;;;;5043954;28;20399;-61
2021/03/28 06:44:56;;;;;;;4.00;2.23;;;7.80;99.90;;;;;;5029310;28;20406;-62
2021/03/28 06:47:51;;;;;;;3.87;2.40;;;7.90;99.90;;;;;;5035286;28;20494;-61
2021/03/28 06:50:55;;;;;;;7.00;2.70;;;8.10;99.90;;;;;;5042887;28;20445;-60
2021/03/28 06:53:34;;;;;;;6.00;2.47;;;8.30;99.90;;;;;;4976206;28;20423;-61
2021/03/28 06:56:31;;;;;;;4.40;2.70;;;8.50;99.90;;;;;;4979031;28;20417;-61
2021/03/28 06:59:30;;;;;;;8.00;3.27;;;8.60;99.90;;;;;;5020170;28;20538;-61
2021/03/28 07:02:06;;;;;;;7.30;2.80;;;8.70;99.90;;;;;;5033138;28;20494;-61
2021/03/28 07:04:50;;;;;;;5.33;2.30;;;8.90;99.90;;;;;;5034685;28;20422;-60
2021/03/28 07:07:44;;;;;;;6.67;2.50;;;9.00;99.90;;;;;;5038249;28;20420;-61
2021/03/28 07:10:51;;;;;;;5.00;2.30;;;9.10;99.90;;;;;;5017439;28;20467;-61
2021/03/28 07:13:41;;;;;;;6.50;2.43;;;9.50;99.90;;;;;;5017669;28;20385;-62
2021/03/28 07:16:16;;;;;;;4.13;2.50;;;9.70;98.80;;;;;;5053150;28;20946;-60
2021/03/28 07:19:22;;;;;;;6.80;3.30;;;9.90;98.90;;;;;;5039657;28;20440;-60
2021/03/28 07:22:12;;;;;;;5.63;2.47;;;9.90;99.10;;;;;;5037254;28;20440;-61
2021/03/28 07:25:20;;;;;;;4.10;2.30;;;9.90;98.50;;;;;;5052045;28;20411;-61
2021/03/28 07:28:35;;;;;;;5.10;2.37;;;10.20;97.70;;;;;;5057079;28;20488;-60
2021/03/28 07:31:30;;;;;;;5.20;2.97;;;10.30;97.20;;;;;;4956347;29;20455;-61
2021/03/28 07:34:31;;;;;;;2.83;2.10;;;10.20;96.70;;;;;;5027678;28;20773;-61
2021/03/28 07:37:19;;;;;;;3.73;2.27;;;10.30;97.50;;;;;;5037069;28;20409;-61
2021/03/28 07:40:02;;;;;;;6.23;3.37;;;10.60;97.30;;;;;;5036978;28;20419;-61
2021/03/28 07:42:46;;;;;;;4.67;2.50;;;10.80;96.30;;;;;;5036938;28;20403;-61
2021/03/28 07:45:37;;;;;;;7.30;2.40;;;10.60;96.10;;;;;;5055896;28;20405;-61
2021/03/28 07:48:34;;;;;;;6.70;3.30;;;10.50;96.20;;;;;;5056946;28;20425;-60
2021/03/28 07:51:17;;;;;;;4.83;2.10;;;10.60;96.70;;;;;;5057158;28;20433;-60
2021/03/28 07:54:26;;;;;;;4.43;2.67;;;10.70;96.20;;;;;;5055527;28;20405;-60
2021/03/28 07:57:23;;;;;;;6.97;2.43;;;11.00;96.10;;;;;;5047863;28;20414;-60
2021/03/28 08:00:26;;;;;;;6.90;2.33;;;11.20;95.70;;;;;;5015763;28;20454;-61
2021/03/28 08:03:04;;;;;;;5.83;2.10;;;11.20;95.00;;;;;;5050852;28;20415;-62
2021/03/28 08:06:07;;;;;;;4.77;2.47;;;11.20;95.00;;;;;;5056544;28;20484;-62
2021/03/28 08:09:10;;;;;;;5.70;2.50;;;11.30;95.70;;;;;;5055810;28;20819;-59
2021/03/28 08:11:55;;;;;;;4.70;2.80;;;11.40;94.40;;;;;;5054531;28;20474;-61
2021/03/28 08:14:39;;;;;;;5.27;2.17;;;11.20;94.80;;;;;;5034833;28;20437;-59
2021/03/28 08:17:32;;;;;;;7.13;3.07;;;11.30;95.00;;;;;;5040551;28;20830;-59
2021/03/28 08:20:06;;;;;;;4.03;2.20;;;11.50;94.70;;;;;;5035914;28;20425;-60
2021/03/28 08:22:51;;;;;;;5.30;2.60;;;11.50;94.60;;;;;;5039311;28;20418;-60
2021/03/28 08:25:41;;;;;;;5.37;2.03;;;11.60;94.50;;;;;;5037746;28;20410;-61
2021/03/28 08:28:24;;;;;;;4.60;2.03;;;11.70;94.50;;;;;;5050996;28;20514;-61
2021/03/28 08:30:56;;;;;;;4.33;2.13;;;11.70;95.40;;;;;;5066698;23;20545;-60
2021/03/28 08:33:49;;;;;;;5.13;2.30;;;11.60;95.20;;;;;;5062802;28;20500;-60
2021/03/28 08:36:41;;;;;;;6.10;2.10;;;11.70;94.60;;;;;;5071873;28;20883;-61
2021/03/28 08:39:19;;;;;;;5.40;2.63;;;11.70;94.50;;;;;;5053250;28;20435;-60
2021/03/28 08:42:08;;;;;;;4.30;2.43;;;11.90;94.30;;;;;;5067870;28;20487;-60
2021/03/28 08:44:55;;;;;;;4.40;2.47;;;12.00;94.00;;;;;;5051128;28;20455;-60
2021/03/28 08:47:46;;;;;;;5.53;2.03;;;12.10;94.00;;;;;;5055086;28;20452;-60
2021/03/28 08:50:30;;;;;;;5.70;2.47;;;11.80;94.30;;;;;;5049099;28;20964;-59
2021/03/28 08:53:33;;;;;;;5.23;1.90;;;11.70;93.80;;;;;;5058912;28;20401;-60
2021/03/28 08:56:10;;;;;;;4.93;2.63;;;11.50;94.70;;;;;;5051504;28;20811;-60
2021/03/28 08:58:52;;;;;;;5.50;2.30;;;11.60;94.20;;;;;;5037374;28;20409;-60
2021/03/28 09:01:33;;;;;;;5.73;2.10;;;11.70;94.30;;;;;;5055517;28;20424;-60
2021/03/28 09:04:13;;;;;;;5.90;2.37;;;11.60;94.10;;;;;;5055886;28;20783;-61
2021/03/28 09:07:09;;;;;;;5.33;2.30;;;11.60;93.90;;;;;;5055286;28;20382;-61
2021/03/28 09:09:56;;;;;;;5.00;2.37;;;12.00;93.30;;;;;;5023404;28;20487;-61
2021/03/28 09:12:25;;;;;;;8.10;2.07;;;12.20;92.90;;;;;;5036086;28;20825;-61
2021/03/28 09:15:19;;;;;;;6.43;2.00;;;12.30;92.10;;;;;;5043582;28;20417;-62
2021/03/28 09:18:22;;;;;;;4.10;2.10;;;12.40;91.90;;;;;;5057431;28;20422;-62
2021/03/28 09:21:22;;;;;;;4.90;2.37;;;12.40;91.60;;;;;;5049756;28;20518;-63
2021/03/28 09:24:24;;;;;;;7.10;2.53;;;12.40;90.80;;;;;;5052926;28;20483;-63
2021/03/28 09:27:05;;;;;;;7.70;1.97;;;12.40;90.80;;;;;;5037496;28;20422;-63
2021/03/28 09:30:09;;;;;;;3.60;2.10;;;12.40;90.30;;;;;;5042007;28;21021;-62
2021/03/28 09:32:38;;;;;;;2.60;1.87;;;12.40;89.10;;;;;;5012169;28;20428;-63
2021/03/28 09:35:16;;;;;;;4.93;1.80;;;12.40;89.00;;;;;;5046634;28;20421;-62
2021/03/28 09:38:17;;;;;;;2.47;1.70;;;12.60;89.30;;;;;;5048267;28;20974;-63
2021/03/28 09:41:04;;;;;;;3.77;1.93;;;12.70;86.20;;;;;;5053861;28;20423;-63
2021/03/28 09:43:42;;;;;;;2.77;1.77;;;12.80;86.90;;;;;;5054436;28;20392;-63
2021/03/28 09:46:16;;;;;;;5.27;2.63;;;12.70;85.10;;;;;;5053980;28;20546;-63
2021/03/28 09:48:56;;;;;;;3.70;1.60;;;12.60;87.20;;;;;;5053926;28;20395;-63
2021/03/28 09:51:40;;;;;;;4.20;1.77;;;12.60;86.30;;;;;;5054147;28;20486;-63
2021/03/28 09:54:18;;;;;;;6.20;2.30;;;12.60;85.40;;;;;;5052537;28;20440;-63
2021/03/28 09:57:04;;;;;;;4.20;2.20;;;12.70;87.00;;;;;;5054248;28;20739;-63
2021/03/28 09:59:48;;;;;;;4.57;2.00;;;12.90;84.40;;;;;;5053729;28;20485;-63
2021/03/28 10:02:35;;;;;;;5.03;2.20;;;13.00;83.60;;;;;;5070672;28;20411;-63
2021/03/28 10:05:11;;;;;;;5.17;2.10;;;13.10;82.40;;;;;;5074062;28;20391;-63
2021/03/28 10:08:15;;;;;;;2.70;2.10;;;13.10;81.40;;;;;;5074549;28;20930;-63
2021/03/28 10:11:05;;;;;;;2.20;1.50;;;13.30;80.00;;;;;;5073950;28;20491;-63
2021/03/28 10:13:58;;;;;;;3.57;1.90;;;13.30;80.70;;;;;;5074034;28;20740;-63
2021/03/28 10:16:27;;;;;;;4.37;1.80;;;13.10;80.40;;;;;;5073549;28;20401;-63
2021/03/28 10:19:04;;;;;;;4.13;2.07;;;13.10;81.20;;;;;;5073486;28;20411;-63
2021/03/28 10:21:39;;;;;;;4.03;2.23;;;13.50;81.60;;;;;;5073667;28;20439;-65
2021/03/28 10:24:11;;;;;;;4.63;2.17;;;13.70;81.10;;;;;;5073084;28;20416;-63
2021/03/28 10:26:58;;;;;;;4.90;1.70;;;13.80;78.80;;;;;;5073644;28;20418;-64
2021/03/28 10:30:01;;;;;;;5.00;2.07;;;14.00;81.00;;;;;;5063918;28;20453;-63
2021/03/28 10:32:48;;;;;;;2.97;1.40;;;13.80;76.50;;;;;;5047249;28;20413;-63
2021/03/28 10:35:31;;;;;;;7.30;2.40;;;13.70;77.40;;;;;;5042297;28;20424;-63
2021/03/28 10:38:03;;;;;;;5.10;1.73;;;13.90;76.70;;;;;;5034465;28;20941;-63
2021/03/28 10:40:51;;;;;;;5.27;1.87;;;14.00;76.40;;;;;;5038086;28;20505;-63
2021/03/28 10:43:38;;;;;;;4.00;1.63;;;14.20;77.70;;;;;;5053399;28;20484;-63
2021/03/28 10:46:28;;;;;;;4.57;2.07;;;14.30;74.50;;;;;;5032696;28;20404;-63
2021/03/28 10:49:31;;;;;;;2.13;1.63;;;14.20;76.20;;;;;;5044857;28;20421;-63
2021/03/28 10:52:05;;;;;;;4.60;1.83;;;14.50;74.50;;;;;;5053080;28;20419;-63
2021/03/28 10:54:49;;;;;;;3.47;1.73;;;14.70;73.70;;;;;;5053043;28;20403;-64
2021/03/28 10:57:36;;;;;;;3.27;1.90;;;15.20;74.30;;;;;;5052908;28;20495;-63
2021/03/28 11:00:13;;;;;;;6.13;2.57;;;15.50;70.40;;;;;;5052351;28;20484;-63
2021/03/28 11:03:16;;;;;;;2.43;1.80;;;16.40;68.30;;;;;;5053311;28;20372;-63
2021/03/28 11:06:00;;;;;;;4.43;1.87;;;16.60;67.20;;;;;;5053578;28;20388;-64
2021/03/28 11:08:40;;;;;;;4.53;1.97;;;17.30;65.00;;;;;;5047666;28;20849;-63
2021/03/28 11:11:11;;;;;;;3.43;1.70;;;17.30;64.50;;;;;;5050488;28;20451;-65
2021/03/28 11:13:49;;;;;;;2.87;1.70;;;17.90;60.80;;;;;;5052976;28;20440;-64
2021/03/28 11:16:27;;;;;;;6.67;5.47;;;18.00;59.40;;;;;;5043446;28;20528;-65
2021/03/28 11:19:30;;;;;;;2.77;2.00;;;19.40;59.30;;;;;;5032869;28;20906;-63
2021/03/28 11:22:05;;;;;;;4.40;2.20;;;20.30;57.20;;;;;;5032813;28;20397;-62
2021/03/28 11:24:43;;;;;;;4.70;1.80;;;20.60;53.00;;;;;;5043996;28;20800;-65
2021/03/28 11:27:41;;;;;;;4.07;2.10;;;20.40;52.00;;;;;;5033758;28;20406;-63
2021/03/28 11:30:31;;;;;;;5.50;2.00;;;20.10;53.50;;;;;;5043971;28;20999;-65
2021/03/28 11:33:13;;;;;;;2.73;1.70;;;20.60;53.50;;;;;;5032782;28;20398;-64
2021/03/28 11:35:59;;;;;;;4.50;2.20;;;21.10;52.90;;;;;;5034012;28;20386;-63
2021/03/28 11:38:42;;;;;;;4.77;2.13;;;22.30;49.40;;;;;;5019469;28;20533;-63
2021/03/28 11:41:11;;;;;;;3.60;2.20;;;22.80;47.90;;;;;;5032683;28;20879;-64
2021/03/28 11:43:45;;;;;;;5.10;1.70;;;23.40;46.80;;;;;;5032713;28;20429;-65
2021/03/28 11:46:36;;;;;;;4.30;2.10;;;23.10;47.00;;;;;;5033560;28;20940;-63
2021/03/28 11:49:01;;;;;;;4.10;2.20;;;23.00;47.20;;;;;;5045157;28;20952;-63
2021/03/28 11:51:38;;;;;;;3.67;2.43;;;23.70;47.50;;;;;;5042592;28;20485;-63
2021/03/28 11:54:10;;;;;;;4.23;2.20;;;23.00;46.50;;;;;;5053780;28;20159;-63
2021/03/28 11:56:50;;;;;;;4.30;1.97;;;22.60;48.80;;;;;;5047176;28;20414;-63
2021/03/28 11:59:26;;;;;;;5.50;2.13;;;22.00;47.20;;;;;;5044694;28;20484;-63
2021/03/28 12:01:55;;;;;;;4.40;2.30;;;22.10;47.80;;;;;;5042296;28;20409;-63
2021/03/28 12:04:29;;;;;;;4.50;2.20;;;22.50;48.70;;;;;;5044884;28;20427;-63
2021/03/28 12:07:12;;;;;;;3.30;2.00;;;23.70;46.40;;;;;;5044701;28;20405;-63
2021/03/28 12:09:38;;;;;;;5.23;2.37;;;23.40;45.00;;;;;;5036167;28;21004;-63
2021/03/28 12:12:25;;;;;;;3.57;2.20;;;22.10;43.60;;;;;;5037083;28;20414;-62
2021/03/28 12:14:51;;;;;;;3.10;1.80;;;21.90;45.30;;;;;;5056256;28;20393;-63
2021/03/28 12:17:28;;;;;;;3.20;2.00;;;22.00;45.20;;;;;;5040788;28;20762;-64
2021/03/28 12:20:15;;;;;;;4.10;2.33;;;23.40;44.10;;;;;;5037009;28;20465;-64
2021/03/28 12:22:41;;;;;;;6.50;2.00;;;24.30;43.40;;;;;;5036605;28;20417;-64
2021/03/28 12:25:16;;;;;;;3.07;2.20;;;24.40;41.80;;;;;;5036316;28;20406;-64
2021/03/28 12:28:00;;;;;;;4.20;2.23;;;25.10;41.40;;;;;;5041446;28;20174;-64
2021/03/28 12:30:29;;;;;;;4.00;1.50;;;24.70;41.30;;;;;;5054993;28;20916;-64
2021/03/28 12:33:09;;;;;;;3.40;1.90;;;24.20;42.80;;;;;;5048213;28;20422;-64
2021/03/28 12:35:46;;;;;;;3.70;1.87;;;24.10;42.20;;;;;;5045434;28;20979;-64
2021/03/28 12:38:28;;;;;;;3.87;1.70;;;25.00;43.40;;;;;;5036141;28;20476;-64
2021/03/28 12:41:22;;;;;;;3.30;1.30;;;25.30;40.70;;;;;;5043884;28;20437;-64
2021/03/28 12:43:59;;;;;;;5.47;2.00;;;25.30;39.90;;;;;;5045732;28;20417;-64
2021/03/28 12:46:58;;;;;;;5.00;2.00;;;25.00;42.60;;;;;;5054682;28;20409;-64
2021/03/28 12:49:53;;;;;;;2.40;1.60;;;25.80;41.00;;;;;;5055465;28;20924;-63
2021/03/28 12:52:47;;;;;;;3.07;1.90;;;26.00;39.70;;;;;;5053857;28;20529;-64
2021/03/28 12:55:28;;;;;;;5.10;2.40;;;26.40;38.70;;;;;;5054521;28;20761;-64
2021/03/28 12:58:09;;;;;;;2.03;1.30;;;26.60;38.20;;;;;;5055008;28;20886;-64
2021/03/28 13:00:40;;;;;;;3.50;1.50;;;26.80;39.00;;;;;;5042914;28;20445;-64
2021/03/28 13:03:38;;;;;;;3.97;2.00;;;26.80;38.00;;;;;;5035013;28;20398;-66
2021/03/28 13:06:14;;;;;;;2.33;1.60;;;27.40;37.60;;;;;;5035859;28;20464;-64
2021/03/28 13:09:00;;;;;;;2.80;1.90;;;28.40;36.40;;;;;;5035266;28;20418;-64
2021/03/28 13:11:57;;;;;;;4.00;2.10;;;28.10;35.30;;;;;;5034424;28;20485;-65
2021/03/28 13:14:28;;;;;;;3.80;2.03;;;28.70;36.10;;;;;;5036830;28;20427;-64
2021/03/28 13:17:13;;;;;;;4.57;1.80;;;27.70;36.10;;;;;;5054463;28;20386;-65
2021/03/28 13:19:45;;;;;;;4.30;2.10;;;27.60;36.80;;;;;;5040674;28;20440;-63
2021/03/28 13:22:43;;;;;;;4.10;1.73;;;28.00;35.90;;;;;;5054921;28;20401;-63
2021/03/28 13:25:17;;;;;;;3.77;2.30;;;27.80;36.00;;;;;;5054161;28;20439;-64
2021/03/28 13:28:11;;;;;;;3.97;1.80;;;28.00;35.70;;;;;;5054263;28;20407;-64
2021/03/28 13:30:41;;;;;;;3.60;1.40;;;27.30;36.00;;;;;;5048019;28;20461;-63
2021/03/28 13:33:32;;;;;;;4.10;2.03;;;26.70;38.10;;;;;;5053464;28;20488;-63
2021/03/28 13:35:58;;;;;;;3.30;2.00;;;26.70;37.40;;;;;;5046323;28;20933;-63
2021/03/28 13:38:27;;;;;;;3.60;1.93;;;27.30;36.60;;;;;;5037816;28;20422;-64
2021/03/28 13:41:02;;;;;;;4.87;2.57;;;28.20;35.90;;;;;;5054136;28;20937;-63
2021/03/28 13:43:32;;;;;;;3.80;1.87;;;26.70;35.80;;;;;;5056866;28;20411;-63
2021/03/28 13:46:09;;;;;;;4.27;1.77;;;26.00;36.80;;;;;;5053866;28;20432;-63
2021/03/28 13:48:35;;;;;;;2.63;1.70;;;26.50;37.90;;;;;;5050273;28;20503;-62
2021/03/28 13:51:16;;;;;;;3.03;1.63;;;27.30;37.10;;;;;;5033852;28;20490;-64
2021/03/28 13:53:45;;;;;;;3.03;1.60;;;28.50;35.60;;;;;;5034549;28;20889;-63
2021/03/28 13:56:36;;;;;;;3.43;2.20;;;29.00;35.10;;;;;;5034162;28;20402;-64
2021/03/28 13:59:24;;;;;;;2.37;1.50;;;27.70;35.40;;;;;;5030460;28;20503;-63
2021/03/28 14:02:14;;;;;;;3.77;1.93;;;27.60;35.90;;;;;;5051711;28;20447;-63
2021/03/28 14:04:51;;;;;;;2.90;1.60;;;28.70;35.30;;;;;;5053304;28;20408;-63
2021/03/28 14:07:41;;;;;;;3.23;1.70;;;27.80;34.40;;;;;;5053654;28;20947;-63
2021/03/28 14:10:35;;;;;;;3.97;1.67;;;27.40;36.40;;;;;;5036335;28;20490;-63
2021/03/28 14:13:13;;;;;;;3.90;1.73;;;27.00;35.40;;;;;;5023256;28;20417;-63
2021/03/28 14:15:59;;;;;;;4.57;1.93;;;28.00;34.50;;;;;;5032588;28;20410;-63
2021/03/28 14:18:31;;;;;;;4.87;2.33;;;28.30;34.80;;;;;;5036482;28;20409;-63
2021/03/28 14:21:21;;;;;;;2.77;1.73;;;28.30;33.60;;;;;;5051954;28;20437;-63
2021/03/28 14:24:05;;;;;;;2.90;1.50;;;28.00;34.70;;;;;;5034742;28;20426;-63
2021/03/28 14:26:52;;;;;;;3.73;1.87;;;26.90;35.10;;;;;;5032031;28;20422;-63